Time;durP1;ratioP1;P1;durP2;ratioP2;P2;SDS_P1;SDS_P2;PMS_P1;PMS_P2;Temp;Humidity;BMP_temperature;BMP_pressure;BME280_temperature;BME280_humidity;BME280_pressure;Samples;Min_cycle;Max_cycle;Signal;HPM_P1;HPM_P2
2022/09/14 00:02:20;;;;;;;5.77;5.37;;;19.60;99.90;;;;;;6203077;28;20229;-62
2022/09/14 00:05:24;;;;;;;5.90;5.30;;;19.60;99.90;;;;;;6202328;28;20308;-62
2022/09/14 00:08:27;;;;;;;5.80;5.40;;;19.60;99.90;;;;;;6200441;28;20708;-62
2022/09/14 00:11:31;;;;;;;6.60;5.67;;;19.60;99.90;;;;;;6213200;28;20233;-62
2022/09/14 00:14:36;;;;;;;5.50;5.10;;;19.70;99.90;;;;;;6212458;28;20312;-62
2022/09/14 00:17:39;;;;;;;5.30;4.87;;;19.60;99.90;;;;;;6213772;28;20237;-61
2022/09/14 00:20:42;;;;;;;5.97;5.37;;;19.60;99.90;;;;;;6217616;28;20228;-62
2022/09/14 00:23:45;;;;;;;5.23;4.80;;;19.60;99.90;;;;;;6210906;28;20287;-62
2022/09/14 00:26:49;;;;;;;5.57;5.10;;;19.60;99.90;;;;;;6212668;28;20241;-62
2022/09/14 00:29:53;;;;;;;5.70;5.17;;;19.60;99.90;;;;;;6211446;28;20237;-62
2022/09/14 00:32:56;;;;;;;5.63;5.20;;;19.60;99.90;;;;;;6217350;28;20225;-62
2022/09/14 00:36:05;;;;;;;5.07;4.67;;;19.60;99.90;;;;;;6214971;28;20234;-62
2022/09/14 00:39:08;;;;;;;5.77;5.30;;;19.60;99.90;;;;;;6211919;28;20256;-62
2022/09/14 00:42:18;;;;;;;5.83;5.33;;;19.50;99.90;;;;;;6210046;28;20315;-62
2022/09/14 00:45:25;;;;;;;7.57;5.93;;;19.40;99.90;;;;;;6216598;28;20234;-62
2022/09/14 00:48:30;;;;;;;6.27;5.77;;;19.50;99.90;;;;;;6223540;28;20276;-62
2022/09/14 00:51:34;;;;;;;6.40;5.90;;;19.40;99.90;;;;;;6226050;28;20283;-63
2022/09/14 00:54:41;;;;;;;5.93;5.33;;;19.40;99.90;;;;;;6226336;28;20299;-63
2022/09/14 00:57:48;;;;;;;5.57;5.17;;;19.50;99.90;;;;;;6226362;28;20252;-62
2022/09/14 01:00:53;;;;;;;5.73;5.30;;;19.50;99.90;;;;;;6226559;28;20236;-64
2022/09/14 01:03:56;;;;;;;7.07;5.20;;;19.50;99.90;;;;;;6221472;28;20344;-62
2022/09/14 01:07:06;;;;;;;5.50;5.10;;;19.50;99.90;;;;;;6225976;28;20237;-63
2022/09/14 01:10:23;;;;;;;6.67;5.90;;;19.50;99.90;;;;;;6225556;28;20688;-63
2022/09/14 01:13:36;;;;;;;7.37;6.13;;;19.50;99.90;;;;;;6226916;28;20299;-63
2022/09/14 01:16:49;;;;;;;7.60;6.00;;;19.50;99.90;;;;;;6225488;28;20256;-63
2022/09/14 01:20:10;;;;;;;6.30;5.80;;;19.50;99.90;;;;;;6225742;28;20653;-63
2022/09/14 01:23:20;;;;;;;6.10;5.53;;;19.50;99.90;;;;;;6224616;28;20237;-63
2022/09/14 01:26:47;;;;;;;6.20;5.60;;;19.50;99.90;;;;;;6225334;28;20278;-63
2022/09/14 01:29:59;;;;;;;6.00;5.50;;;19.50;99.90;;;;;;6224899;28;20306;-63
2022/09/14 01:33:09;;;;;;;7.40;5.20;;;19.50;99.90;;;;;;6224853;28;20307;-63
2022/09/14 01:36:15;;;;;;;6.10;5.60;;;19.50;99.90;;;;;;6225016;28;20229;-63
2022/09/14 01:39:20;;;;;;;7.00;5.80;;;19.40;99.90;;;;;;6225210;28;20244;-63
2022/09/14 01:42:27;;;;;;;6.97;6.27;;;19.40;99.90;;;;;;6225420;28;20244;-62
2022/09/14 01:45:37;;;;;;;5.87;5.27;;;19.40;99.90;;;;;;6225208;28;20240;-62
2022/09/14 01:48:44;;;;;;;6.93;6.43;;;19.40;99.90;;;;;;6224966;28;20324;-63
2022/09/14 01:51:53;;;;;;;5.93;5.07;;;19.40;99.90;;;;;;6225177;28;20748;-63
2022/09/14 01:55:01;;;;;;;5.50;5.10;;;19.50;99.90;;;;;;6225045;28;20260;-63
2022/09/14 01:58:09;;;;;;;5.50;5.10;;;19.40;99.90;;;;;;6225496;28;20268;-62
2022/09/14 02:01:18;;;;;;;6.07;5.50;;;19.30;99.90;;;;;;6224842;28;20668;-62
2022/09/14 02:04:31;;;;;;;6.70;5.40;;;19.30;99.90;;;;;;6224987;28;20225;-63
2022/09/14 02:07:34;;;;;;;5.47;5.00;;;19.20;99.90;;;;;;6224615;28;20248;-62
2022/09/14 02:10:39;;;;;;;6.07;5.20;;;19.20;99.90;;;;;;6211127;28;20233;-62
2022/09/14 02:13:42;;;;;;;5.80;5.20;;;19.20;99.90;;;;;;6224867;28;20232;-63
2022/09/14 02:16:47;;;;;;;5.30;4.80;;;19.20;99.90;;;;;;6224671;28;20535;-62
2022/09/14 02:19:54;;;;;;;5.40;4.87;;;19.20;99.90;;;;;;6224839;28;20220;-62
2022/09/14 02:22:57;;;;;;;5.33;4.93;;;19.20;99.90;;;;;;6225404;28;20255;-62
2022/09/14 02:26:01;;;;;;;5.87;5.30;;;19.20;99.90;;;;;;6224910;28;20612;-62
2022/09/14 02:29:05;;;;;;;6.37;5.27;;;19.20;99.90;;;;;;6224854;28;20229;-64
2022/09/14 02:32:19;;;;;;;5.43;4.93;;;19.10;99.90;;;;;;6225149;28;20233;-63
2022/09/14 02:35:27;;;;;;;8.90;5.73;;;19.10;99.90;;;;;;6224643;28;20291;-63
2022/09/14 02:38:37;;;;;;;11.20;5.70;;;19.10;99.90;;;;;;6224280;28;20673;-63
2022/09/14 02:41:45;;;;;;;5.17;4.67;;;19.20;99.90;;;;;;6224774;28;20275;-63
2022/09/14 02:44:58;;;;;;;6.10;5.30;;;19.20;99.90;;;;;;6225091;28;20233;-63
2022/09/14 02:48:11;;;;;;;7.27;5.83;;;19.10;99.90;;;;;;6228511;28;20241;-61
2022/09/14 02:51:24;;;;;;;5.50;5.00;;;19.10;99.90;;;;;;6228835;28;20229;-61
2022/09/14 02:54:34;;;;;;;5.17;4.70;;;19.10;99.90;;;;;;6229185;28;20244;-61
2022/09/14 02:58:02;;;;;;;5.60;5.10;;;19.10;99.90;;;;;;6228810;28;20241;-61
2022/09/14 03:01:07;;;;;;;5.47;4.97;;;19.10;99.90;;;;;;6228436;28;20240;-61
2022/09/14 03:04:11;;;;;;;5.47;4.83;;;19.10;99.90;;;;;;6228787;28;20229;-61
2022/09/14 03:07:14;;;;;;;5.50;5.10;;;19.00;99.90;;;;;;6228379;28;20326;-61
2022/09/14 03:10:18;;;;;;;5.63;5.13;;;19.00;99.90;;;;;;6228784;28;20233;-62
2022/09/14 03:13:21;;;;;;;5.73;5.23;;;19.10;99.90;;;;;;6219198;28;20621;-62
2022/09/14 03:16:24;;;;;;;6.27;5.80;;;19.00;99.90;;;;;;6228349;28;20283;-62
2022/09/14 03:19:29;;;;;;;7.40;6.00;;;19.00;99.90;;;;;;6228479;28;20229;-62
2022/09/14 03:22:33;;;;;;;8.43;5.30;;;19.00;99.90;;;;;;6228098;28;20229;-62
2022/09/14 03:25:37;;;;;;;7.67;6.00;;;19.00;99.90;;;;;;6228352;28;20257;-62
2022/09/14 03:28:41;;;;;;;5.93;5.30;;;19.00;99.90;;;;;;6227681;28;20279;-62
2022/09/14 03:31:44;;;;;;;6.70;6.00;;;19.00;99.90;;;;;;6227681;28;20273;-62
2022/09/14 03:34:49;;;;;;;5.57;5.07;;;19.10;99.90;;;;;;6227499;28;20368;-62
2022/09/14 03:37:52;;;;;;;6.20;5.70;;;19.10;99.90;;;;;;6227735;28;20307;-62
2022/09/14 03:40:56;;;;;;;6.60;6.00;;;19.00;99.90;;;;;;6227567;28;20630;-62
2022/09/14 03:43:59;;;;;;;6.93;6.33;;;18.90;99.90;;;;;;6232722;28;20201;-62
2022/09/14 03:47:02;;;;;;;6.60;6.10;;;19.00;99.90;;;;;;6230697;28;20229;-62
2022/09/14 03:50:08;;;;;;;7.70;5.80;;;18.90;99.90;;;;;;6228446;28;20669;-61
2022/09/14 03:53:11;;;;;;;8.03;6.07;;;18.90;99.90;;;;;;6228632;28;20244;-62
2022/09/14 03:56:16;;;;;;;6.60;6.00;;;18.90;99.90;;;;;;6226937;28;20232;-62
2022/09/14 03:59:20;;;;;;;6.20;5.70;;;18.90;99.90;;;;;;6227017;28;20622;-62
2022/09/14 04:02:23;;;;;;;8.10;6.00;;;19.00;99.90;;;;;;6227601;28;20295;-62
2022/09/14 04:05:27;;;;;;;7.73;7.03;;;18.90;99.90;;;;;;6227037;28;20237;-63
2022/09/14 04:08:31;;;;;;;9.57;6.10;;;18.90;99.90;;;;;;6226969;28;20359;-63
2022/09/14 04:11:34;;;;;;;7.50;6.67;;;18.80;99.90;;;;;;6227138;28;20229;-63
2022/09/14 04:14:37;;;;;;;7.00;6.30;;;18.80;99.90;;;;;;6222332;28;20672;-63
2022/09/14 04:17:40;;;;;;;8.00;6.37;;;18.90;99.90;;;;;;6225810;28;20245;-63
2022/09/14 04:20:44;;;;;;;6.90;6.30;;;18.90;99.90;;;;;;6225744;28;20290;-63
2022/09/14 04:23:48;;;;;;;9.27;6.50;;;18.90;99.90;;;;;;6226049;28;20236;-63
2022/09/14 04:27:11;;;;;;;6.87;6.23;;;18.90;99.90;;;;;;6225977;28;20390;-62
2022/09/14 04:30:14;;;;;;;7.83;5.80;;;18.90;99.90;;;;;;6226738;28;20240;-63
2022/09/14 04:33:17;;;;;;;6.37;5.80;;;18.90;99.90;;;;;;6226356;28;20237;-63
2022/09/14 04:36:26;;;;;;;7.27;6.67;;;18.80;99.90;;;;;;6226801;28;20257;-63
2022/09/14 04:39:30;;;;;;;7.20;6.60;;;18.90;99.90;;;;;;6225431;28;20237;-63
2022/09/14 04:42:33;;;;;;;6.53;5.90;;;18.90;99.90;;;;;;6226408;28;20233;-63
2022/09/14 04:45:36;;;;;;;7.20;6.60;;;18.90;99.90;;;;;;6225923;28;20237;-62
2022/09/14 04:48:40;;;;;;;8.53;5.83;;;18.80;99.90;;;;;;6226212;28;20244;-62
2022/09/14 04:51:45;;;;;;;9.23;6.33;;;18.90;99.90;;;;;;6226110;28;20240;-62
2022/09/14 04:54:48;;;;;;;6.70;6.10;;;18.90;99.90;;;;;;6226066;28;20588;-63
2022/09/14 04:57:51;;;;;;;7.80;6.77;;;18.90;99.90;;;;;;6226148;28;20244;-62
2022/09/14 05:00:55;;;;;;;7.90;7.10;;;18.90;99.90;;;;;;6226149;28;20228;-62
2022/09/14 05:03:58;;;;;;;10.47;7.37;;;18.90;99.90;;;;;;6225973;28;20307;-62
2022/09/14 05:07:03;;;;;;;7.43;6.60;;;18.90;99.90;;;;;;6225559;28;20303;-62
2022/09/14 05:10:07;;;;;;;8.70;7.47;;;19.00;99.90;;;;;;6225361;28;20240;-62
2022/09/14 05:13:10;;;;;;;6.93;6.20;;;19.10;99.90;;;;;;6225614;28;20236;-62
2022/09/14 05:16:16;;;;;;;7.10;6.50;;;19.00;99.90;;;;;;6225831;28;20233;-62
2022/09/14 05:19:20;;;;;;;8.60;7.40;;;19.00;99.90;;;;;;6221088;28;20260;-63
2022/09/14 05:22:24;;;;;;;12.23;6.80;;;19.10;99.90;;;;;;6225539;28;20252;-63
2022/09/14 05:25:27;;;;;;;8.07;6.87;;;19.10;99.90;;;;;;6225622;28;20307;-62
2022/09/14 05:28:33;;;;;;;7.67;6.87;;;19.20;99.90;;;;;;6225122;28;20233;-63
2022/09/14 05:31:36;;;;;;;9.03;7.17;;;19.30;99.90;;;;;;6225375;28;20236;-62
2022/09/14 05:34:39;;;;;;;7.50;6.57;;;19.30;99.90;;;;;;6225746;28;20252;-62
2022/09/14 05:37:44;;;;;;;7.60;6.90;;;19.40;99.90;;;;;;6225272;28;20287;-63
2022/09/14 05:40:47;;;;;;;7.03;5.90;;;19.50;99.90;;;;;;6225458;28;20237;-62
2022/09/14 05:43:50;;;;;;;6.63;5.50;;;19.60;99.90;;;;;;6225698;28;20212;-62
2022/09/14 05:46:53;;;;;;;7.23;6.63;;;19.70;99.90;;;;;;6225029;28;20244;-64
2022/09/14 05:49:56;;;;;;;7.50;6.77;;;19.70;99.90;;;;;;6225374;28;20206;-62
2022/09/14 05:53:01;;;;;;;7.43;6.73;;;19.90;99.90;;;;;;6225222;28;20259;-62
2022/09/14 05:56:06;;;;;;;6.73;6.13;;;19.90;99.90;;;;;;6225557;28;20209;-62
2022/09/14 05:59:10;;;;;;;5.90;5.23;;;19.80;99.90;;;;;;6225439;28;20312;-63
2022/09/14 06:02:13;;;;;;;8.33;7.50;;;19.90;99.90;;;;;;6225342;28;20232;-63
2022/09/14 06:05:21;;;;;;;6.70;6.13;;;19.90;99.90;;;;;;6224641;28;20679;-62
2022/09/14 06:08:26;;;;;;;6.30;5.57;;;19.90;99.90;;;;;;6225564;28;20320;-61
2022/09/14 06:11:32;;;;;;;9.03;6.13;;;20.10;99.90;;;;;;6225452;28;20232;-62
2022/09/14 06:14:35;;;;;;;6.83;6.13;;;20.30;99.90;;;;;;6225450;28;20225;-63
2022/09/14 06:17:38;;;;;;;6.30;5.50;;;20.40;99.90;;;;;;6225160;28;20237;-63
2022/09/14 06:20:50;;;;;;;6.30;5.73;;;20.60;99.90;;;;;;6224855;28;20291;-62
2022/09/14 06:23:55;;;;;;;6.43;5.83;;;20.90;99.90;;;;;;6229548;28;20593;-62
2022/09/14 06:26:58;;;;;;;6.93;6.17;;;21.10;99.90;;;;;;6229439;28;20286;-62
2022/09/14 06:30:01;;;;;;;6.43;5.67;;;21.20;99.90;;;;;;6229737;28;20274;-62
2022/09/14 06:33:04;;;;;;;5.70;5.20;;;21.50;99.90;;;;;;6229579;28;20237;-62
2022/09/14 06:36:11;;;;;;;6.37;5.80;;;21.70;99.90;;;;;;6229211;28;20240;-62
2022/09/14 06:39:16;;;;;;;6.13;5.53;;;21.70;99.90;;;;;;6228878;28;20237;-61
2022/09/14 06:42:19;;;;;;;5.70;5.20;;;21.60;99.90;;;;;;6229399;28;20243;-62
2022/09/14 06:45:22;;;;;;;5.87;5.27;;;21.60;99.90;;;;;;6220230;28;20233;-62
2022/09/14 06:48:26;;;;;;;6.40;5.70;;;21.70;99.90;;;;;;6219427;28;20773;-62
2022/09/14 06:51:31;;;;;;;6.47;5.77;;;21.80;99.90;;;;;;6215772;28;20280;-62
2022/09/14 06:54:36;;;;;;;6.03;5.53;;;21.90;99.90;;;;;;6217210;28;20230;-62
2022/09/14 06:57:39;;;;;;;6.77;6.07;;;22.20;99.90;;;;;;6219961;28;20654;-62
2022/09/14 07:00:45;;;;;;;10.97;5.87;;;22.60;99.90;;;;;;6227859;28;20237;-62
2022/09/14 07:03:50;;;;;;;8.47;5.90;;;23.60;99.90;;;;;;6228432;28;20233;-62
2022/09/14 07:06:53;;;;;;;15.50;14.00;;;24.70;99.90;;;;;;6228211;28;20233;-62
2022/09/14 07:09:57;;;;;;;8.07;6.10;;;24.80;98.80;;;;;;6228418;28;20240;-62
2022/09/14 07:13:00;;;;;;;6.67;5.03;;;24.80;97.80;;;;;;6228373;28;20287;-62
2022/09/14 07:16:04;;;;;;;6.60;5.40;;;24.80;97.90;;;;;;6228624;28;20689;-62
2022/09/14 07:19:11;;;;;;;6.33;5.33;;;24.90;97.80;;;;;;6228322;28;20233;-62
2022/09/14 07:22:14;;;;;;;5.83;5.00;;;26.40;97.10;;;;;;6228009;28;20565;-64
2022/09/14 07:25:18;;;;;;;7.20;5.30;;;29.10;92.50;;;;;;6227625;28;20549;-63
2022/09/14 07:28:21;;;;;;;13.73;6.00;;;31.60;78.00;;;;;;6213831;28;20704;-63
2022/09/14 07:31:26;;;;;;;8.65;5.03;;;32.70;67.60;;;;;;6227889;28;20283;-64
2022/09/14 07:34:29;;;;;;;27.20;7.82;;;33.70;61.00;;;;;;6228332;28;20560;-64
2022/09/14 07:37:32;;;;;;;4.75;3.70;;;34.60;56.60;;;;;;6227457;28;20275;-63
2022/09/14 07:40:36;;;;;;;6.88;4.13;;;35.70;53.60;;;;;;6227879;28;20603;-63
2022/09/14 07:43:40;;;;;;;13.77;6.43;;;37.00;48.40;;;;;;6227626;28;20589;-64
2022/09/14 07:46:45;;;;;;;5.60;3.95;;;38.00;44.70;;;;;;6207688;28;20672;-63
2022/09/14 07:49:48;;;;;;;4.20;3.83;;;37.60;43.70;;;;;;6210639;28;20228;-63
2022/09/14 07:52:51;;;;;;;4.85;3.80;;;36.30;44.70;;;;;;6204286;28;20520;-63
2022/09/14 07:55:58;;;;;;;15.25;7.72;;;34.90;46.50;;;;;;6203204;28;20220;-64
2022/09/14 07:59:03;;;;;;;7.95;5.30;;;33.70;48.40;;;;;;6202818;28;20580;-63
2022/09/14 08:02:27;;;;;;;7.47;4.28;;;32.50;50.50;;;;;;6202704;28;20299;-63
2022/09/14 08:05:31;;;;;;;4.90;4.50;;;31.60;53.20;;;;;;6202534;28;20228;-66
2022/09/14 08:08:36;;;;;;;3.85;3.53;;;31.30;54.70;;;;;;6202707;28;20232;-66
2022/09/14 08:11:40;;;;;;;4.28;3.88;;;31.30;54.50;;;;;;6202444;28;20553;-67
2022/09/14 08:14:43;;;;;;;4.15;3.75;;;32.80;53.60;;;;;;6202358;28;20614;-68
2022/09/14 08:17:47;;;;;;;4.18;3.78;;;34.70;49.70;;;;;;6201909;28;20323;-68
2022/09/14 08:20:50;;;;;;;7.97;4.50;;;36.70;46.00;;;;;;6202431;28;20295;-68
2022/09/14 08:23:54;;;;;;;3.83;3.53;;;39.00;42.10;;;;;;6202152;28;20245;-67
2022/09/14 08:26:59;;;;;;;3.85;3.53;;;41.10;37.90;;;;;;6202229;28;20237;-68
2022/09/14 08:30:02;;;;;;;4.70;3.97;;;41.30;34.70;;;;;;6202262;28;20250;-68
2022/09/14 08:33:05;;;;;;;9.40;4.60;;;41.50;34.80;;;;;;6202015;28;20240;-68
2022/09/14 08:36:09;;;;;;;3.42;3.13;;;41.20;34.50;;;;;;6201665;28;20739;-66
2022/09/14 08:39:14;;;;;;;4.25;3.85;;;40.00;35.30;;;;;;6201590;28;20681;-68
2022/09/14 08:42:21;;;;;;;10.73;4.80;;;37.80;37.40;;;;;;6201822;28;20288;-68
2022/09/14 08:45:25;;;;;;;6.35;4.78;;;35.80;41.60;;;;;;6201205;28;20229;-65
2022/09/14 08:48:32;;;;;;;5.55;5.05;;;34.40;44.50;;;;;;6198869;28;20268;-63
2022/09/14 08:51:36;;;;;;;9.77;5.47;;;33.00;47.70;;;;;;6201682;28;20234;-63
2022/09/14 08:54:39;;;;;;;5.60;5.20;;;31.90;50.30;;;;;;6201455;28;20396;-63
2022/09/14 08:57:48;;;;;;;8.80;4.85;;;30.90;52.00;;;;;;6201465;28;20244;-63
2022/09/14 09:00:54;;;;;;;6.32;5.53;;;30.00;54.80;;;;;;6201455;28;20233;-63
2022/09/14 09:04:13;;;;;;;7.30;5.70;;;30.50;56.00;;;;;;6201214;28;20237;-63
2022/09/14 09:07:24;;;;;;;6.47;5.85;;;33.20;51.90;;;;;;6201100;28;20316;-63
2022/09/14 09:10:29;;;;;;;8.55;5.60;;;36.40;47.20;;;;;;6201061;28;20237;-65
2022/09/14 09:13:38;;;;;;;6.18;5.05;;;39.30;41.80;;;;;;6208378;28;20564;-64
2022/09/14 09:16:41;;;;;;;10.70;6.22;;;40.90;38.20;;;;;;6205837;28;20588;-64
2022/09/14 09:19:58;;;;;;;70.68;13.73;;;41.00;37.00;;;;;;6215641;28;20274;-63
2022/09/14 09:23:11;;;;;;;16.92;6.78;;;40.00;38.00;;;;;;6216774;28;20223;-62
2022/09/14 09:26:19;;;;;;;6.97;5.97;;;39.70;38.40;;;;;;6225151;28;20681;-63
2022/09/14 09:29:24;;;;;;;8.02;5.78;;;40.30;37.40;;;;;;6225642;28;20255;-65
2022/09/14 09:32:27;;;;;;;23.45;7.38;;;41.40;36.00;;;;;;6216360;28;20228;-67
2022/09/14 09:35:32;;;;;;;9.57;6.22;;;42.30;34.60;;;;;;6225561;28;20230;-63
2022/09/14 09:38:35;;;;;;;6.15;5.55;;;42.20;34.00;;;;;;6224698;28;20269;-66
2022/09/14 09:41:44;;;;;;;8.95;5.88;;;41.40;35.20;;;;;;6224938;28;20682;-65
2022/09/14 09:45:00;;;;;;;11.95;7.10;;;41.10;35.40;;;;;;6225010;28;20697;-65
2022/09/14 09:48:10;;;;;;;9.57;6.28;;;39.90;36.40;;;;;;6224606;28;20691;-65
2022/09/14 09:51:16;;;;;;;10.45;6.65;;;38.80;38.30;;;;;;6201268;28;20229;-64
2022/09/14 09:54:29;;;;;;;8.07;6.13;;;38.70;38.90;;;;;;6200856;28;20307;-65
2022/09/14 09:57:34;;;;;;;9.50;6.28;;;38.60;39.00;;;;;;6205586;28;20687;-66
2022/09/14 10:00:38;;;;;;;5.47;4.88;;;37.30;40.40;;;;;;6205677;28;20233;-66
2022/09/14 10:03:41;;;;;;;7.10;5.90;;;37.00;41.50;;;;;;6205317;28;20232;-65
2022/09/14 10:06:46;;;;;;;7.85;5.43;;;37.60;40.90;;;;;;6205228;28;20432;-66
2022/09/14 10:09:58;;;;;;;6.43;5.43;;;38.60;40.40;;;;;;6205283;28;20684;-66
2022/09/14 10:13:04;;;;;;;6.43;4.78;;;38.60;39.50;;;;;;6205171;28;20287;-65
2022/09/14 10:16:16;;;;;;;5.50;5.00;;;38.70;39.80;;;;;;6205639;28;20244;-64
2022/09/14 10:19:24;;;;;;;8.57;5.10;;;39.10;39.60;;;;;;6205978;28;20247;-65
2022/09/14 10:22:29;;;;;;;10.30;4.22;;;39.10;39.60;;;;;;6205168;28;20255;-64
2022/09/14 10:25:33;;;;;;;11.55;5.22;;;39.00;39.00;;;;;;6205112;28;20232;-62
2022/09/14 10:28:36;;;;;;;7.10;5.20;;;38.50;39.70;;;;;;6214694;28;20547;-62
2022/09/14 10:31:42;;;;;;;10.50;5.32;;;37.90;40.70;;;;;;6218086;28;20235;-62
2022/09/14 10:34:45;;;;;;;9.13;5.28;;;37.40;41.50;;;;;;6215754;28;20758;-62
2022/09/14 10:37:59;;;;;;;4.43;4.13;;;36.60;42.60;;;;;;6210876;28;20300;-62
2022/09/14 10:41:14;;;;;;;5.30;4.80;;;36.40;42.90;;;;;;6213247;28;20638;-61
2022/09/14 10:44:38;;;;;;;5.70;4.82;;;36.20;43.20;;;;;;6205580;28;20229;-61
2022/09/14 10:48:01;;;;;;;7.45;4.80;;;35.50;44.00;;;;;;6229038;28;20248;-61
2022/09/14 10:51:25;;;;;;;5.00;4.40;;;35.40;44.50;;;;;;6212719;28;20240;-62
2022/09/14 10:54:51;;;;;;;5.07;4.50;;;35.10;44.90;;;;;;6224039;28;20820;-62
2022/09/14 10:58:05;;;;;;;11.82;5.43;;;34.30;46.50;;;;;;6201101;28;20224;-63
2022/09/14 11:01:30;;;;;;;5.40;4.90;;;34.30;46.80;;;;;;6210877;28;20272;-63
2022/09/14 11:04:49;;;;;;;4.55;4.15;;;33.80;47.10;;;;;;6216565;28;20308;-64
2022/09/14 11:08:04;;;;;;;5.00;4.50;;;33.80;47.60;;;;;;6215462;28;20236;-62
2022/09/14 11:11:34;;;;;;;4.90;4.50;;;34.10;47.20;;;;;;6215283;28;20190;-62
2022/09/14 11:14:53;;;;;;;6.25;3.72;;;33.70;47.50;;;;;;6208963;28;20287;-62
2022/09/14 11:18:13;;;;;;;4.15;3.80;;;33.50;48.50;;;;;;6204503;28;20253;-64
2022/09/14 11:21:25;;;;;;;4.97;4.18;;;33.60;47.80;;;;;;6217875;28;20232;-66
2022/09/14 11:24:37;;;;;;;5.10;4.10;;;33.20;47.90;;;;;;6228049;28;20236;-67
2022/09/14 11:27:44;;;;;;;5.43;4.57;;;33.10;48.30;;;;;;6227870;28;20335;-66
2022/09/14 11:30:56;;;;;;;5.13;4.57;;;33.10;49.10;;;;;;6227722;28;20338;-63
2022/09/14 11:34:16;;;;;;;9.15;5.00;;;33.00;49.30;;;;;;6213874;28;20687;-66
2022/09/14 11:37:25;;;;;;;4.80;4.30;;;33.10;49.10;;;;;;6203398;28;20304;-64
2022/09/14 11:40:32;;;;;;;4.95;4.22;;;33.20;49.00;;;;;;6219997;28;20295;-65
2022/09/14 11:43:43;;;;;;;4.32;3.92;;;33.00;49.40;;;;;;6227576;28;20243;-64
2022/09/14 11:46:51;;;;;;;5.28;4.38;;;32.70;49.70;;;;;;6227516;28;20232;-65
2022/09/14 11:50:00;;;;;;;4.70;4.30;;;32.50;49.80;;;;;;6215839;28;20228;-66
2022/09/14 11:53:11;;;;;;;4.60;4.15;;;32.20;50.30;;;;;;6220486;28;20500;-66
2022/09/14 11:56:25;;;;;;;4.95;4.18;;;32.10;50.70;;;;;;6221044;28;20229;-66
2022/09/14 11:59:49;;;;;;;3.88;3.58;;;32.30;50.50;;;;;;6211563;28;20234;-64
2022/09/14 12:03:12;;;;;;;7.90;4.53;;;32.50;50.30;;;;;;6202537;28;20320;-64
2022/09/14 12:06:49;;;;;;;4.13;3.83;;;32.80;49.60;;;;;;6202417;28;20866;-63
2022/09/14 12:10:20;;;;;;;4.80;4.03;;;33.00;49.30;;;;;;6203966;28;20233;-66
2022/09/14 12:13:23;;;;;;;4.85;4.32;;;32.60;50.10;;;;;;6203105;28;20229;-67
2022/09/14 12:16:26;;;;;;;4.72;4.32;;;32.60;50.00;;;;;;6202550;28;20616;-66
2022/09/14 12:19:36;;;;;;;13.48;4.88;;;32.80;49.70;;;;;;6199853;28;20229;-65
2022/09/14 12:22:40;;;;;;;4.65;4.25;;;32.40;49.70;;;;;;6200744;28;20241;-65
2022/09/14 12:26:19;;;;;;;7.15;4.57;;;32.40;50.20;;;;;;6200624;28;20229;-66
2022/09/14 12:29:31;;;;;;;4.32;3.97;;;31.80;51.30;;;;;;6166925;28;20371;-65
2022/09/14 12:32:42;;;;;;;8.02;4.50;;;32.00;50.70;;;;;;6182676;28;20229;-66
2022/09/14 12:35:46;;;;;;;8.88;4.43;;;32.50;49.90;;;;;;6200387;28;20241;-65
2022/09/14 12:39:21;;;;;;;3.63;3.38;;;32.90;49.40;;;;;;6200754;28;20240;-66
2022/09/14 12:42:28;;;;;;;4.63;4.05;;;33.20;48.60;;;;;;6197140;28;20602;-63
2022/09/14 12:45:50;;;;;;;4.32;3.95;;;33.20;48.10;;;;;;6199696;28;20685;-65
2022/09/14 12:48:58;;;;;;;5.60;3.88;;;33.30;48.50;;;;;;6194617;28;20315;-66
2022/09/14 12:52:12;;;;;;;4.47;3.72;;;33.00;49.60;;;;;;6201165;28;20229;-65
2022/09/14 12:55:34;;;;;;;8.52;4.38;;;32.80;50.10;;;;;;6200996;28;20283;-67
2022/09/14 12:59:03;;;;;;;5.50;4.10;;;32.40;50.00;;;;;;6188264;28;20571;-66
2022/09/14 13:02:40;;;;;;;4.35;3.95;;;32.30;50.80;;;;;;6180989;28;20218;-66
2022/09/14 13:05:45;;;;;;;6.15;4.00;;;31.80;51.20;;;;;;6191954;28;20235;-66
2022/09/14 13:08:50;;;;;;;4.30;3.80;;;31.80;51.20;;;;;;6200712;28;20518;-68
2022/09/14 13:11:56;;;;;;;3.80;3.45;;;31.70;50.90;;;;;;6200904;28;20245;-66
2022/09/14 13:15:03;;;;;;;7.97;4.18;;;31.30;52.30;;;;;;6200500;28;20254;-67
2022/09/14 13:18:28;;;;;;;4.90;3.60;;;31.20;52.10;;;;;;6210043;28;20244;-65
2022/09/14 13:21:31;;;;;;;5.22;3.80;;;31.00;52.40;;;;;;6225669;28;20233;-64
2022/09/14 13:24:38;;;;;;;6.32;4.13;;;30.60;54.00;;;;;;6218125;28;20607;-65
2022/09/14 13:27:41;;;;;;;6.93;4.50;;;30.70;53.00;;;;;;6211796;28;20708;-64
2022/09/14 13:30:54;;;;;;;5.18;4.15;;;31.00;53.00;;;;;;6214920;28;20232;-66
2022/09/14 13:33:58;;;;;;;4.20;3.80;;;30.80;53.00;;;;;;6192964;28;20227;-65
2022/09/14 13:37:02;;;;;;;4.55;4.18;;;30.80;53.50;;;;;;6213054;28;20232;-66
2022/09/14 13:40:07;;;;;;;4.13;3.80;;;30.90;53.80;;;;;;6204391;28;20224;-68
2022/09/14 13:43:12;;;;;;;3.88;3.67;;;31.00;52.80;;;;;;6212314;28;20243;-70
2022/09/14 13:46:17;;;;;;;4.45;4.10;;;31.00;52.70;;;;;;6220313;28;20229;-67
2022/09/14 13:49:23;;;;;;;4.03;3.65;;;30.80;53.70;;;;;;6217811;28;20240;-67
2022/09/14 13:52:36;;;;;;;6.45;5.05;;;30.80;53.80;;;;;;6194061;28;20296;-69
2022/09/14 13:55:59;;;;;;;5.22;4.47;;;30.80;54.00;;;;;;6192824;28;20307;-69
2022/09/14 13:59:21;;;;;;;6.78;4.18;;;30.60;54.10;;;;;;6176615;28;20505;-68
2022/09/14 14:02:27;;;;;;;5.03;4.15;;;30.70;54.50;;;;;;6199225;28;20232;-69
2022/09/14 14:05:32;;;;;;;7.15;4.47;;;30.60;54.70;;;;;;6205371;28;20235;-68
2022/09/14 14:08:38;;;;;;;4.47;4.07;;;30.60;54.80;;;;;;6199103;28;20603;-66
2022/09/14 14:11:45;;;;;;;6.45;4.10;;;30.70;54.60;;;;;;6199781;28;20292;-67
2022/09/14 14:14:56;;;;;;;5.10;3.90;;;30.70;54.90;;;;;;6199228;28;20229;-67
2022/09/14 14:18:21;;;;;;;4.60;3.83;;;30.70;54.90;;;;;;6199925;28;20255;-62
2022/09/14 14:21:30;;;;;;;4.93;4.07;;;30.60;54.10;;;;;;6198641;28;20237;-63
2022/09/14 14:24:33;;;;;;;6.32;3.85;;;30.60;54.30;;;;;;6206645;28;20229;-63
2022/09/14 14:28:00;;;;;;;4.47;4.05;;;30.60;54.10;;;;;;6206055;28;20317;-65
2022/09/14 14:31:07;;;;;;;5.40;4.07;;;30.40;53.30;;;;;;6198566;28;20237;-65
2022/09/14 14:34:18;;;;;;;7.05;3.63;;;30.30;53.70;;;;;;6198274;28;20669;-64
2022/09/14 14:37:22;;;;;;;7.78;4.28;;;30.40;53.50;;;;;;6199613;28;20681;-67
2022/09/14 14:40:27;;;;;;;4.05;3.13;;;30.40;52.90;;;;;;6199684;28;20681;-66
2022/09/14 14:43:30;;;;;;;5.63;3.45;;;30.50;53.10;;;;;;6203310;28;20225;-63
2022/09/14 14:46:33;;;;;;;5.15;3.60;;;30.50;52.90;;;;;;6204349;28;20243;-66
2022/09/14 14:49:38;;;;;;;4.45;3.33;;;30.50;52.90;;;;;;6204220;28;20653;-62
2022/09/14 14:52:41;;;;;;;4.00;3.60;;;30.30;52.90;;;;;;6199396;28;20245;-61
2022/09/14 14:55:45;;;;;;;7.50;3.90;;;30.40;52.70;;;;;;6204047;28;20620;-62
2022/09/14 14:58:48;;;;;;;5.03;3.70;;;30.30;52.60;;;;;;6203948;28;20646;-61
2022/09/14 15:01:52;;;;;;;6.35;3.17;;;30.20;53.00;;;;;;6206209;28;20221;-61
2022/09/14 15:04:57;;;;;;;4.20;3.72;;;30.30;53.20;;;;;;6204361;28;20205;-62
2022/09/14 15:08:00;;;;;;;4.32;3.50;;;30.20;52.90;;;;;;6206784;28;20577;-63
2022/09/14 15:11:03;;;;;;;5.82;3.33;;;30.20;53.00;;;;;;6204523;28;20229;-63
2022/09/14 15:14:09;;;;;;;3.40;2.90;;;30.30;53.30;;;;;;6204051;28;20637;-63
2022/09/14 15:17:12;;;;;;;3.63;3.42;;;30.30;53.80;;;;;;6204590;28;20229;-63
2022/09/14 15:20:18;;;;;;;4.03;3.72;;;30.30;54.30;;;;;;6205254;28;20233;-64
2022/09/14 15:23:22;;;;;;;5.97;3.63;;;30.10;55.20;;;;;;6204223;28;20232;-63
2022/09/14 15:26:26;;;;;;;7.45;3.80;;;30.00;55.40;;;;;;6215901;28;20222;-63
2022/09/14 15:29:29;;;;;;;6.60;3.53;;;30.00;55.90;;;;;;6228355;28;20233;-63
2022/09/14 15:32:32;;;;;;;4.90;3.57;;;29.80;56.30;;;;;;6228320;28;20227;-63
2022/09/14 15:35:37;;;;;;;6.27;4.20;;;29.70;56.70;;;;;;6214831;28;20225;-63
2022/09/14 15:38:40;;;;;;;4.33;3.97;;;29.60;57.70;;;;;;6216997;28;20243;-63
2022/09/14 15:41:44;;;;;;;5.03;4.27;;;29.50;58.60;;;;;;6214301;28;20232;-63
2022/09/14 15:44:47;;;;;;;6.63;3.67;;;29.20;59.80;;;;;;6203443;28;20224;-63
2022/09/14 15:47:51;;;;;;;6.50;4.13;;;29.10;60.70;;;;;;6203710;28;20294;-63
2022/09/14 15:50:59;;;;;;;7.63;3.83;;;29.00;61.40;;;;;;6225639;28;20255;-63
2022/09/14 15:54:03;;;;;;;5.30;4.57;;;29.00;61.70;;;;;;6222676;28;20247;-63
2022/09/14 15:57:10;;;;;;;7.07;5.20;;;29.00;62.20;;;;;;6218162;28;20263;-63
2022/09/14 16:00:14;;;;;;;5.23;4.30;;;28.90;62.80;;;;;;6203528;28;20244;-63
2022/09/14 16:03:17;;;;;;;6.00;4.73;;;29.00;63.20;;;;;;6203802;28;20559;-63
2022/09/14 16:06:22;;;;;;;4.70;4.23;;;29.00;63.50;;;;;;6204040;28;20229;-62
2022/09/14 16:09:25;;;;;;;6.67;4.27;;;29.00;64.30;;;;;;6203343;28;20677;-62
2022/09/14 16:12:28;;;;;;;7.83;4.77;;;28.90;64.60;;;;;;6203399;28;20237;-62
2022/09/14 16:15:31;;;;;;;5.53;4.73;;;28.70;65.40;;;;;;6203294;28;20602;-62